createdAt,value
2023-05-17T14:27:03.488Z,4.43
2023-05-17T14:29:31.811Z,3.85
2023-05-17T14:31:58.978Z,4.30
2023-05-17T14:34:26.216Z,4.15
2023-05-17T14:36:54.264Z,4.50
2023-05-17T14:39:21.371Z,4.13
2023-05-17T14:41:48.568Z,4.50
2023-05-17T14:44:15.726Z,4.43
2023-05-17T14:46:42.820Z,4.97
2023-05-17T14:49:10.141Z,4.45
2023-05-17T14:51:37.292Z,4.13
2023-05-17T14:54:05.864Z,4.53
2023-05-17T14:56:33.174Z,4.18
2023-05-17T14:59:00.336Z,4.47
2023-05-17T15:01:27.906Z,5.07
2023-05-17T15:03:55.139Z,4.55
2023-05-17T15:06:24.862Z,5.07
2023-05-17T15:08:52.714Z,4.60
2023-05-17T15:11:20.271Z,4.65
2023-05-17T15:13:47.702Z,4.40
2023-05-17T15:16:14.854Z,4.68
2023-05-17T15:21:33.698Z,4.50
2023-05-17T15:24:00.809Z,4.65
2023-05-17T15:26:27.972Z,5.10
2023-05-17T15:28:55.181Z,4.53
2023-05-17T15:31:24.140Z,4.57
2023-05-17T15:33:51.818Z,4.53
2023-05-17T15:36:19.010Z,4.47
2023-05-17T15:38:46.337Z,4.28
2023-05-17T15:41:16.985Z,4.53
2023-05-17T15:43:44.177Z,4.30
2023-05-17T15:46:12.166Z,4.47
2023-05-17T15:48:39.382Z,4.18
2023-05-17T15:51:06.839Z,4.32
2023-05-17T15:53:34.678Z,4.75
2023-05-17T15:56:02.553Z,4.40
2023-05-17T15:58:33.102Z,4.50
2023-05-17T16:01:03.102Z,4.47
2023-05-17T16:06:22.178Z,4.10
2023-05-17T16:08:49.370Z,4.95
2023-05-17T16:11:17.043Z,4.95
2023-05-17T16:13:44.246Z,4.75
2023-05-17T16:16:13.344Z,4.15
2023-05-17T16:18:40.698Z,4.63
2023-05-17T16:21:08.008Z,4.70
2023-05-17T16:23:35.150Z,4.65
2023-05-17T16:26:02.864Z,4.68
2023-05-17T16:28:32.301Z,4.30
2023-05-17T16:30:59.531Z,4.57
2023-05-17T16:33:26.911Z,4.68
2023-05-17T16:35:54.106Z,4.55
2023-05-17T16:38:21.434Z,5.22
2023-05-17T16:40:48.640Z,5.35
2023-05-17T16:43:16.255Z,4.80
2023-05-17T16:45:46.864Z,3.80
2023-05-17T16:48:14.992Z,5.05
2023-05-17T16:50:42.781Z,6.40
2023-05-17T16:53:09.956Z,4.57
2023-05-17T16:55:37.391Z,4.70
2023-05-17T16:58:05.048Z,6.07
2023-05-17T17:00:32.226Z,5.70
2023-05-17T17:03:00.089Z,6.03
2023-05-17T17:05:27.823Z,5.15
2023-05-17T17:07:55.519Z,4.97
2023-05-17T17:10:22.716Z,5.63
2023-05-17T17:12:50.198Z,5.50
2023-05-17T17:15:17.309Z,5.43
2023-05-17T17:17:45.670Z,5.35
2023-05-17T17:20:13.275Z,5.00
2023-05-17T17:22:41.376Z,5.07
2023-05-17T17:25:09.114Z,5.10
2023-05-17T17:27:36.344Z,4.85
2023-05-17T17:30:03.979Z,5.43
2023-05-17T17:32:31.387Z,6.20
2023-05-17T17:34:58.655Z,5.80
2023-05-17T17:37:26.083Z,5.53
2023-05-17T17:39:53.314Z,5.70
2023-05-17T17:42:20.727Z,6.40
2023-05-17T17:44:47.830Z,6.22
2023-05-17T17:47:15.065Z,6.20
2023-05-17T17:49:42.307Z,6.40
2023-05-17T17:52:09.436Z,5.90
2023-05-17T17:54:36.579Z,5.82
2023-05-17T17:57:03.969Z,7.18
2023-05-17T17:59:31.192Z,6.95
2023-05-17T18:01:59.693Z,7.50
2023-05-17T18:04:27.151Z,6.47
2023-05-17T18:06:54.909Z,6.40
2023-05-17T18:09:22.822Z,6.07
2023-05-17T18:11:50.035Z,6.93
2023-05-17T18:14:17.566Z,7.35
2023-05-17T18:16:44.686Z,6.70
2023-05-17T18:19:11.986Z,4.88
2023-05-17T18:21:39.156Z,4.82
2023-05-17T18:24:06.393Z,4.72
2023-05-17T18:26:33.563Z,4.85
2023-05-17T18:29:00.818Z,4.95
2023-05-17T18:31:27.925Z,5.43
2023-05-17T18:33:57.145Z,5.88
2023-05-17T18:36:24.599Z,5.72
2023-05-17T18:38:52.452Z,5.32
2023-05-17T18:41:19.703Z,5.35
2023-05-17T18:43:46.866Z,5.25
2023-05-17T18:46:14.008Z,5.70
2023-05-17T18:48:41.185Z,4.95
2023-05-17T18:51:08.508Z,6.00
2023-05-17T18:53:38.674Z,5.78
2023-05-17T18:56:06.202Z,4.72
2023-05-17T18:58:33.350Z,4.88
2023-05-17T19:01:02.408Z,5.80
2023-05-17T19:03:29.775Z,4.72
2023-05-17T19:05:56.925Z,4.22
2023-05-17T19:08:24.105Z,4.80
2023-05-17T19:10:51.300Z,4.75
2023-05-17T19:13:18.426Z,5.03
2023-05-17T19:15:45.605Z,5.00
2023-05-17T19:18:12.822Z,4.93
2023-05-17T19:20:39.976Z,5.45
2023-05-17T19:23:07.089Z,5.57
2023-05-17T19:25:34.349Z,5.30
2023-05-17T19:28:01.522Z,5.25
2023-05-17T19:30:32.604Z,5.40
2023-05-17T19:33:00.298Z,5.22
2023-05-17T19:35:27.428Z,5.95
2023-05-17T19:37:56.847Z,5.25
2023-05-17T19:40:24.858Z,5.30
2023-05-17T19:42:51.998Z,5.88
2023-05-17T19:45:19.252Z,5.13
2023-05-17T19:47:46.587Z,5.15
2023-05-17T19:50:14.314Z,6.05
2023-05-17T19:52:41.478Z,6.38
2023-05-17T19:55:08.781Z,5.13
2023-05-17T19:57:36.035Z,5.40
2023-05-17T20:00:03.572Z,6.18
2023-05-17T20:02:30.793Z,5.53
2023-05-17T20:04:59.937Z,6.00
2023-05-17T20:07:27.068Z,6.72
2023-05-17T20:09:54.285Z,6.80
2023-05-17T20:12:21.791Z,6.80
2023-05-17T20:14:48.907Z,6.47
2023-05-17T20:17:16.089Z,6.93
2023-05-17T20:19:43.285Z,7.50
2023-05-17T20:22:10.637Z,7.78
2023-05-17T20:24:38.063Z,7.20
2023-05-17T20:27:05.434Z,6.88
2023-05-17T20:29:32.578Z,7.55
2023-05-17T20:31:59.852Z,7.43
2023-05-17T20:34:29.814Z,7.38
2023-05-17T20:36:58.229Z,7.88
2023-05-17T20:39:28.166Z,7.13
2023-05-17T20:41:55.695Z,6.35
2023-05-17T20:44:24.009Z,7.25
2023-05-17T20:46:52.115Z,6.30
2023-05-17T20:49:19.329Z,6.18
2023-05-17T20:51:46.460Z,6.05
2023-05-17T20:54:13.734Z,6.03
2023-05-17T20:56:40.870Z,6.40
2023-05-17T20:59:08.058Z,5.78
2023-05-17T21:01:36.487Z,5.72
2023-05-17T21:04:03.725Z,6.30
2023-05-17T21:06:32.665Z,5.70
2023-05-17T21:09:02.437Z,5.53
2023-05-17T21:11:30.011Z,5.60
2023-05-17T21:14:00.236Z,4.82
2023-05-17T21:16:27.501Z,5.20
2023-05-17T21:18:54.739Z,5.53
2023-05-17T21:21:21.921Z,4.97
2023-05-17T21:23:49.251Z,5.60
2023-05-17T21:26:16.464Z,5.35
2023-05-17T21:28:43.637Z,5.03
2023-05-17T21:31:11.020Z,5.70
2023-05-17T21:33:38.246Z,4.97
2023-05-17T21:36:05.524Z,5.32
2023-05-17T21:38:32.737Z,5.10
2023-05-17T21:40:59.914Z,5.53
2023-05-17T21:43:27.017Z,4.95
2023-05-17T21:45:54.168Z,4.85
2023-05-17T21:48:21.324Z,5.22
2023-05-17T21:50:49.773Z,4.72
2023-05-17T21:53:16.952Z,5.32
2023-05-17T21:55:56.906Z,4.78
2023-05-17T21:58:29.031Z,4.90
2023-05-17T22:00:56.323Z,5.60
2023-05-17T22:03:23.579Z,5.22
2023-05-17T22:05:52.335Z,5.07
2023-05-17T22:08:19.508Z,5.45
2023-05-17T22:10:46.690Z,4.82
2023-05-17T22:13:15.845Z,5.75
2023-05-17T22:15:43.073Z,4.95
2023-05-17T22:18:12.356Z,5.28
2023-05-17T22:20:39.699Z,4.82
2023-05-17T22:23:06.909Z,4.72
2023-05-17T22:25:34.070Z,5.07
2023-05-17T22:28:01.234Z,5.57
2023-05-17T22:30:28.438Z,4.75
2023-05-17T22:32:57.273Z,5.20
2023-05-17T22:35:24.810Z,5.13
2023-05-17T22:37:53.351Z,5.45
2023-05-17T22:40:20.818Z,5.22
2023-05-17T22:42:48.284Z,5.47
2023-05-17T22:45:15.504Z,5.15
2023-05-17T22:47:42.711Z,4.90
2023-05-17T22:50:12.056Z,5.13
2023-05-17T22:52:41.183Z,5.32
2023-05-17T22:55:08.499Z,5.45
2023-05-17T22:57:35.756Z,5.47
2023-05-17T23:00:05.877Z,4.80
2023-05-17T23:02:33.072Z,5.30
2023-05-17T23:05:03.771Z,5.20
2023-05-17T23:07:38.370Z,5.45
2023-05-17T23:10:06.948Z,4.90
2023-05-17T23:12:34.260Z,5.20
2023-05-17T23:15:01.461Z,4.80
2023-05-17T23:17:35.574Z,4.80
2023-05-17T23:20:12.226Z,5.55
2023-05-17T23:22:39.855Z,4.60
2023-05-17T23:25:07.355Z,4.13
2023-05-17T23:27:35.436Z,4.93
2023-05-17T23:30:04.473Z,5.47
2023-05-17T23:32:34.793Z,4.85
2023-05-17T23:35:05.018Z,4.57
2023-05-17T23:37:32.684Z,5.25
2023-05-17T23:40:00.124Z,3.90
2023-05-17T23:42:29.028Z,4.78
2023-05-17T23:44:56.409Z,4.68
2023-05-17T23:47:23.610Z,4.13
2023-05-17T23:49:51.111Z,4.30
2023-05-17T23:52:19.022Z,4.68
2023-05-17T23:54:46.806Z,4.68
2023-05-17T23:57:14.225Z,4.38
2023-05-17T23:59:41.565Z,4.95
